createdAt,value
2023-01-31T09:51:44.989Z,95049.44
2023-01-31T09:54:21.822Z,95022.97
2023-01-31T09:57:01.125Z,95055.50
2023-01-31T09:59:37.692Z,95046.19
2023-01-31T10:02:23.446Z,95042.84
2023-01-31T10:05:05.503Z,95041.53
2023-01-31T10:07:42.481Z,95049.66
2023-01-31T10:10:18.436Z,95056.38
2023-01-31T10:12:50.153Z,95043.97
2023-01-31T10:15:32.932Z,95054.03
2023-01-31T10:18:04.806Z,95063.66
2023-01-31T10:20:38.652Z,95032.44
2023-01-31T10:23:14.395Z,95058.59
2023-01-31T10:25:53.546Z,95048.03
2023-01-31T10:28:25.677Z,95053.72
2023-01-31T10:31:00.305Z,95040.19
2023-01-31T10:33:39.327Z,95045.22
2023-01-31T10:36:14.908Z,95006.81
2023-01-31T10:38:56.332Z,95029.41
2023-01-31T10:41:36.490Z,95030.19
2023-01-31T10:44:11.686Z,95039.09
2023-01-31T10:46:39.543Z,95045.38
2023-01-31T10:49:08.046Z,95046.28
2023-01-31T10:51:56.862Z,95039.31
2023-01-31T10:54:38.275Z,95031.78
2023-01-31T10:57:07.371Z,95036.13
2023-01-31T10:59:37.876Z,95047.28
2023-01-31T11:02:06.601Z,95046.47
2023-01-31T11:04:39.752Z,95043.53
2023-01-31T11:07:08.145Z,95039.78
2023-01-31T11:09:41.369Z,95035.63
2023-01-31T11:12:09.785Z,95015.00
2023-01-31T11:14:37.793Z,94969.75
2023-01-31T11:17:08.936Z,95032.13
2023-01-31T11:19:41.948Z,95004.13
2023-01-31T11:22:19.853Z,95045.72
2023-01-31T11:24:50.915Z,95019.38
2023-01-31T11:27:27.549Z,95044.25
2023-01-31T11:30:00.189Z,95044.69
2023-01-31T11:32:32.035Z,95047.88
2023-01-31T11:35:03.955Z,95045.09
2023-01-31T11:37:34.519Z,95031.00
2023-01-31T11:40:19.771Z,95054.47
2023-01-31T11:42:52.791Z,95041.13
2023-01-31T11:45:23.145Z,95039.69
2023-01-31T11:47:53.124Z,95033.03
2023-01-31T11:50:25.524Z,95039.81
2023-01-31T11:52:59.868Z,95030.47
2023-01-31T11:55:37.266Z,95046.13
2023-01-31T11:58:14.515Z,95052.75
2023-01-31T12:00:51.309Z,95033.81
2023-01-31T12:03:20.157Z,95030.22
2023-01-31T12:05:51.865Z,95025.13
2023-01-31T12:08:35.888Z,95027.31
2023-01-31T12:11:07.907Z,95040.81
2023-01-31T12:13:48.239Z,95029.03
2023-01-31T12:16:20.256Z,95019.69
2023-01-31T12:19:02.142Z,95001.25
2023-01-31T12:21:47.684Z,95023.97
2023-01-31T12:24:28.689Z,95020.81
2023-01-31T12:27:03.615Z,95028.25
2023-01-31T12:29:51.924Z,95021.03
2023-01-31T12:32:42.197Z,95034.69
2023-01-31T12:35:48.374Z,95015.78
2023-01-31T12:38:45.493Z,95042.19
2023-01-31T12:41:24.540Z,95038.69
2023-01-31T12:44:10.504Z,95040.38
2023-01-31T12:46:57.667Z,95049.31
2023-01-31T12:49:52.729Z,95041.81
2023-01-31T12:52:26.072Z,95048.84
2023-01-31T12:55:10.980Z,95049.78
2023-01-31T12:57:49.108Z,95048.31
2023-01-31T13:00:33.381Z,95055.50
2023-01-31T13:03:33.628Z,95051.78
2023-01-31T13:06:07.773Z,95043.38
2023-01-31T13:08:41.089Z,95048.41
2023-01-31T13:11:13.548Z,95051.38
2023-01-31T13:13:47.898Z,95050.00
2023-01-31T13:16:22.643Z,95029.53
2023-01-31T13:18:53.681Z,95052.38
2023-01-31T13:21:27.183Z,95036.28
2023-01-31T13:23:59.055Z,95033.94
2023-01-31T13:26:31.565Z,95006.78
2023-01-31T13:29:04.635Z,95017.44
2023-01-31T13:31:41.227Z,95045.38
2023-01-31T13:34:16.800Z,95041.59
2023-01-31T13:36:46.988Z,95063.25
2023-01-31T13:39:21.437Z,95052.94
2023-01-31T13:41:51.027Z,95063.16
2023-01-31T13:44:20.821Z,95042.41
2023-01-31T13:46:53.782Z,95062.84
2023-01-31T13:49:26.986Z,95054.25
2023-01-31T13:51:58.329Z,95024.75
2023-01-31T13:54:32.764Z,95056.09
2023-01-31T13:57:03.614Z,95062.84
2023-01-31T13:59:35.049Z,95061.03
2023-01-31T14:02:09.844Z,95067.22
2023-01-31T14:04:40.463Z,95062.97
2023-01-31T14:07:24.131Z,95063.47
2023-01-31T14:10:28.595Z,95060.81
2023-01-31T14:13:25.887Z,95073.19
2023-01-31T14:15:54.817Z,95084.69
2023-01-31T14:18:44.368Z,95046.47
2023-01-31T14:21:54.984Z,95082.88
2023-01-31T14:25:07.078Z,95078.63
2023-01-31T14:28:03.784Z,95050.13
2023-01-31T14:30:41.901Z,95080.22
2023-01-31T14:33:19.655Z,95042.75
2023-01-31T14:36:42.182Z,95089.84
2023-01-31T14:39:46.148Z,95087.75
2023-01-31T14:42:45.491Z,95098.91
2023-01-31T14:45:38.201Z,95096.25
2023-01-31T14:48:19.898Z,95062.03
2023-01-31T14:51:09.331Z,95109.91
2023-01-31T14:53:53.080Z,95125.06
2023-01-31T14:56:41.003Z,95111.06
2023-01-31T14:59:27.051Z,95109.19
2023-01-31T15:01:57.717Z,95127.41
2023-01-31T15:04:27.277Z,95103.75
2023-01-31T15:06:57.907Z,95141.81
2023-01-31T15:09:38.441Z,95129.09
2023-01-31T15:12:26.839Z,95149.88
2023-01-31T15:14:55.145Z,94965.81
2023-01-31T15:17:37.446Z,95146.41
2023-01-31T15:20:18.073Z,95148.34
2023-01-31T15:22:47.576Z,95155.56
2023-01-31T15:25:27.644Z,95114.00
2023-01-31T15:27:57.855Z,95152.09
2023-01-31T15:30:29.067Z,95151.03
2023-01-31T15:33:03.065Z,95161.13
2023-01-31T15:35:33.196Z,95163.03
2023-01-31T15:38:05.723Z,95147.91
2023-01-31T15:40:34.139Z,95148.34
2023-01-31T15:43:18.457Z,95168.09
2023-01-31T15:45:47.919Z,95174.22
2023-01-31T15:48:18.828Z,95175.00
2023-01-31T15:50:52.110Z,95158.09
2023-01-31T15:53:22.379Z,95177.66
2023-01-31T15:55:53.542Z,95184.84
2023-01-31T15:58:24.893Z,95155.72
2023-01-31T16:00:54.729Z,95147.03
2023-01-31T16:03:26.048Z,95164.50
2023-01-31T16:05:55.899Z,95183.25
2023-01-31T16:08:29.755Z,95185.66
2023-01-31T16:11:02.449Z,95172.47
2023-01-31T16:13:34.871Z,95197.34
2023-01-31T16:16:04.630Z,95208.47
2023-01-31T16:18:34.900Z,95193.41
2023-01-31T16:21:15.899Z,95192.63
2023-01-31T16:23:44.397Z,95179.97
2023-01-31T16:26:16.867Z,95184.38
2023-01-31T16:28:50.448Z,95205.81
2023-01-31T16:31:21.754Z,95067.84
2023-01-31T16:33:54.939Z,95208.78
2023-01-31T16:36:25.999Z,95219.13
2023-01-31T16:38:58.994Z,95229.75
2023-01-31T16:41:46.673Z,95194.28
2023-01-31T16:44:18.701Z,95226.03
2023-01-31T16:46:48.754Z,95182.69
2023-01-31T16:49:28.036Z,95229.75
2023-01-31T16:51:58.056Z,95230.81
2023-01-31T16:54:26.946Z,95236.13
2023-01-31T16:57:09.485Z,95229.22
2023-01-31T16:59:45.640Z,95224.78
2023-01-31T17:02:21.186Z,95246.78
2023-01-31T17:04:52.789Z,95245.97
2023-01-31T17:07:25.538Z,95196.28
2023-01-31T17:10:00.194Z,95247.31
2023-01-31T17:12:41.117Z,95250.53
2023-01-31T17:15:22.655Z,95235.72
2023-01-31T17:17:55.173Z,95246.31
2023-01-31T17:20:43.804Z,95250.03
2023-01-31T17:23:16.888Z,95257.75
2023-01-31T17:25:47.009Z,95255.88
2023-01-31T17:28:20.763Z,95260.94
2023-01-31T17:30:49.319Z,95217.56
2023-01-31T17:33:23.573Z,95245.38
2023-01-31T17:35:56.296Z,95264.44
2023-01-31T17:38:38.562Z,95260.72
2023-01-31T17:41:11.407Z,95262.81
2023-01-31T17:43:45.287Z,95270.28
2023-01-31T17:46:24.569Z,95229.00
2023-01-31T17:48:53.365Z,95267.13
2023-01-31T17:51:31.812Z,95280.66
